Time;durP1;ratioP1;P1;durP2;ratioP2;P2;SDS_P1;SDS_P2;PMS_P1;PMS_P2;Temp;Humidity;BMP_temperature;BMP_pressure;BME280_temperature;BME280_humidity;BME280_pressure;Samples;Min_cycle;Max_cycle;Signal;HPM_P1;HPM_P2
2022/02/15 00:01:26;;;;;;;1999.90;999.90;;;;;;;10.47;53.03;100149.56;15622603;28;20287;-57
2022/02/15 00:08:58;;;;;;;1999.90;999.90;;;;;;;10.40;53.18;100152.91;15612786;28;20395;-58
2022/02/15 00:16:32;;;;;;;1999.90;999.90;;;;;;;10.51;53.18;100145.72;15639425;28;20452;-59
2022/02/15 00:24:04;;;;;;;1999.90;999.90;;;;;;;10.37;53.22;100142.44;15622993;28;20045;-58
2022/02/15 00:31:38;;;;;;;1999.90;999.90;;;;;;;10.39;54.13;100143.72;15640059;28;20458;-59
2022/02/15 00:39:10;;;;;;;1999.90;999.90;;;;;;;10.21;54.33;100141.44;15612088;28;20057;-55
2022/02/15 00:46:45;;;;;;;1999.90;999.90;;;;;;;10.16;55.06;100141.66;15601128;28;20059;-59
2022/02/15 00:54:17;;;;;;;1999.90;999.90;;;;;;;9.96;55.95;100148.91;15633692;28;20386;-58
2022/02/15 01:01:51;;;;;;;1999.90;999.90;;;;;;;9.90;56.00;100153.06;15632811;28;20045;-58
2022/02/15 01:09:23;;;;;;;1999.90;999.90;;;;;;;9.89;56.83;100151.44;15608811;28;20046;-59
2022/02/15 01:16:56;;;;;;;1999.90;999.90;;;;;;;9.96;56.86;100154.50;15635493;28;20056;-58
2022/02/15 01:24:30;;;;;;;1999.90;999.90;;;;;;;9.95;57.17;100155.66;15641512;28;20049;-60
2022/02/15 01:32:05;;;;;;;1999.90;999.90;;;;;;;9.78;57.99;100148.25;15581962;28;20398;-58
2022/02/15 01:39:38;;;;;;;1999.90;999.90;;;;;;;9.76;58.17;100156.16;15651692;28;20041;-61
2022/02/15 01:47:22;;;;;;;1999.90;999.90;;;;;;;9.52;59.68;100149.28;15626662;28;20371;-59
2022/02/15 01:54:57;;;;;;;1999.90;999.90;;;;;;;9.44;60.32;100154.94;15603745;28;20053;-59
2022/02/15 02:02:30;;;;;;;1999.90;999.90;;;;;;;9.35;60.83;100159.75;15607511;28;20380;-58
2022/02/15 02:10:07;;;;;;;1999.90;999.90;;;;;;;9.19;61.41;100170.66;15612318;28;20061;-58
2022/02/15 02:17:41;;;;;;;1999.90;999.90;;;;;;;9.29;61.27;100161.09;15609852;28;20052;-60
2022/02/15 02:25:18;;;;;;;1999.90;999.90;;;;;;;9.22;61.84;100162.44;15757837;22;20480;-62
2022/02/15 02:32:51;;;;;;;1999.90;999.90;;;;;;;9.19;61.91;100159.53;15710222;28;20037;-62
2022/02/15 02:40:26;;;;;;;1999.90;999.90;;;;;;;8.88;62.96;100169.03;15690928;28;20123;-60
2022/02/15 02:47:59;;;;;;;1999.90;999.90;;;;;;;8.85;63.12;100178.03;15704569;28;20048;-62
2022/02/15 02:55:35;;;;;;;1999.90;999.90;;;;;;;8.82;63.12;100177.91;15688364;28;20087;-58
2022/02/15 03:03:08;;;;;;;1999.90;999.90;;;;;;;8.63;63.17;100195.78;15693119;28;20048;-58
2022/02/15 03:10:45;;;;;;;1999.90;999.90;;;;;;;8.53;63.60;100193.38;15697338;28;20489;-59
2022/02/15 03:18:27;;;;;;;1999.90;999.90;;;;;;;8.38;63.75;100203.06;15692013;28;20110;-58
2022/02/15 03:26:04;;;;;;;1999.90;999.90;;;;;;;8.47;63.74;100224.50;15702489;28;20124;-59
2022/02/15 03:33:38;;;;;;;1999.90;999.90;;;;;;;8.11;65.40;100222.88;15678136;28;20538;-59
2022/02/15 03:49:22;;;;;;;1999.90;999.90;;;;;;;7.91;65.61;100238.22;15663961;28;20087;-58
2022/02/15 03:57:05;;;;;;;1999.90;999.90;;;;;;;7.90;65.67;100235.78;15664203;28;20113;-58
2022/02/15 04:04:39;;;;;;;1999.90;999.90;;;;;;;7.98;65.94;100248.88;15684995;23;20044;-61
2022/02/15 04:12:13;;;;;;;1999.90;999.90;;;;;;;8.06;66.13;100250.84;15656651;28;20063;-61
2022/02/15 04:19:48;;;;;;;1999.90;999.90;;;;;;;7.95;67.05;100253.13;15611833;28;20041;-60
2022/02/15 04:27:22;;;;;;;1999.90;999.90;;;;;;;7.96;67.30;100249.19;15609795;28;20061;-62
2022/02/15 04:34:56;;;;;;;1999.90;999.90;;;;;;;7.97;66.97;100255.56;15621406;28;20067;-60
2022/02/15 04:42:29;;;;;;;1999.90;999.90;;;;;;;7.85;68.03;100258.19;15650702;28;20041;-60
2022/02/15 04:50:05;;;;;;;1999.90;999.90;;;;;;;7.90;68.08;100272.72;15659434;28;20033;-60
2022/02/15 04:57:41;;;;;;;1999.90;999.90;;;;;;;7.93;67.99;100277.66;15632350;28;20099;-60
2022/02/15 05:05:16;;;;;;;1999.90;999.90;;;;;;;7.90;68.50;100269.13;15635258;28;20250;-59
2022/02/15 05:12:51;;;;;;;1999.90;999.90;;;;;;;7.88;68.47;100282.53;15631490;28;20038;-60
2022/02/15 05:20:39;;;;;;;1999.90;999.90;;;;;;;7.84;68.86;100289.88;15634786;28;20045;-60
2022/02/15 05:28:13;;;;;;;1999.90;999.90;;;;;;;7.84;68.30;100306.56;15619377;28;20049;-60
2022/02/15 05:35:46;;;;;;;1999.90;999.90;;;;;;;7.76;67.94;100302.59;15627951;28;20049;-59
2022/02/15 05:43:21;;;;;;;1999.90;999.90;;;;;;;7.68;68.61;100315.31;15596630;28;20135;-60
2022/02/15 05:50:55;;;;;;;1999.90;999.90;;;;;;;7.52;68.05;100322.50;15629156;28;20046;-59
2022/02/15 05:58:38;;;;;;;1999.90;999.90;;;;;;;7.60;68.19;100327.22;15595391;28;20056;-60
2022/02/15 06:06:22;;;;;;;1999.90;999.90;;;;;;;7.47;69.73;100337.31;15630675;28;20362;-60
2022/02/15 06:13:57;;;;;;;1999.90;999.90;;;;;;;7.58;69.59;100345.34;15647113;28;20452;-60
2022/02/15 06:21:29;;;;;;;1999.90;999.90;;;;;;;7.54;69.93;100356.31;15649652;28;20033;-60
2022/02/15 06:29:04;;;;;;;1999.90;999.90;;;;;;;7.53;70.66;100374.09;15650927;28;20041;-61
2022/02/15 06:36:50;;;;;;;1999.90;999.90;;;;;;;7.52;71.10;100378.84;15599432;28;20554;-60
2022/02/15 06:44:25;;;;;;;1999.90;999.90;;;;;;;7.62;71.04;100390.81;15644433;28;20037;-61
2022/02/15 06:51:58;;;;;;;1999.90;999.90;;;;;;;7.77;70.63;100404.22;15649160;28;20041;-60
2022/02/15 06:59:32;;;;;;;1999.90;999.90;;;;;;;7.82;70.58;100410.47;15627180;28;20131;-60
2022/02/15 07:07:04;;;;;;;1999.90;999.90;;;;;;;8.06;70.05;100409.22;15640781;28;20114;-60
2022/02/15 07:14:39;;;;;;;1999.90;999.90;;;;;;;8.29;69.09;100416.28;15618126;28;20045;-60
2022/02/15 07:22:16;;;;;;;1999.90;999.90;;;;;;;8.37;68.60;100417.47;15616292;28;20505;-61
2022/02/15 07:30:13;;;;;;;1999.90;999.90;;;;;;;8.61;67.63;100412.25;15638854;28;20155;-59
2022/02/15 07:37:58;;;;;;;1999.90;999.90;;;;;;;8.49;67.51;100414.06;15638292;28;20053;-60
2022/02/15 07:45:32;;;;;;;1999.90;999.90;;;;;;;8.72;67.17;100423.88;15666222;28;20080;-62
2022/02/15 07:53:05;;;;;;;1999.90;999.90;;;;;;;8.63;66.92;100454.47;15610960;28;20052;-58
2022/02/15 08:00:41;;;;;;;1999.90;999.90;;;;;;;9.38;65.57;100468.16;15633564;28;20033;-60
2022/02/15 08:08:16;;;;;;;1999.90;999.90;;;;;;;9.86;63.56;100480.97;15651740;28;20383;-59
2022/02/15 08:15:53;;;;;;;1999.90;999.90;;;;;;;10.96;60.47;100482.63;15669096;28;20080;-63
2022/02/15 08:23:26;;;;;;;1999.90;999.90;;;;;;;11.43;59.54;100483.16;15614036;28;20049;-63
2022/02/15 08:31:00;;;;;;;1999.90;999.90;;;;;;;11.78;57.51;100472.41;15626852;28;20478;-59
2022/02/15 08:38:33;;;;;;;1999.90;999.90;;;;;;;12.31;56.23;100481.81;15652106;28;20055;-60
2022/02/15 08:46:07;;;;;;;1999.90;999.90;;;;;;;12.61;55.84;100495.50;15674136;28;20115;-63
2022/02/15 08:53:39;;;;;;;1999.90;999.90;;;;;;;13.31;54.08;100495.25;15660345;28;20497;-61
2022/02/15 09:01:14;;;;;;;1999.90;999.90;;;;;;;13.88;52.35;100503.25;15656644;28;20506;-62
2022/02/15 09:08:46;;;;;;;1999.90;999.90;;;;;;;14.59;50.14;100502.25;15662604;28;20060;-61
2022/02/15 09:16:19;;;;;;;1999.90;999.90;;;;;;;15.27;47.63;100512.97;15645829;28;20037;-61
2022/02/15 09:23:52;;;;;;;1999.90;999.90;;;;;;;15.73;46.92;100524.34;15626294;28;20045;-60
2022/02/15 09:31:26;;;;;;;1999.90;999.90;;;;;;;15.09;47.27;100527.81;15661642;28;20052;-61
2022/02/15 09:39:01;;;;;;;;;;;;;;;16.51;43.68;100519.28;15624566;28;20053;-59
2022/02/15 09:46:35;;;;;;;1999.90;999.90;;;;;;;16.51;43.57;100512.84;15629558;28;19928;-61
2022/02/15 09:54:08;;;;;;;1999.90;999.90;;;;;;;17.65;41.75;100522.88;15627301;28;20037;-60
2022/02/15 10:01:41;;;;;;;1999.90;999.90;;;;;;;15.19;45.78;100521.59;15644405;28;20045;-62
2022/02/15 10:09:14;;;;;;;1999.90;999.90;;;;;;;13.52;49.02;100527.47;15643817;28;20065;-62
2022/02/15 10:16:49;;;;;;;1999.90;999.90;;;;;;;13.22;49.90;100527.00;15650729;28;20045;-61
2022/02/15 10:24:24;;;;;;;1999.90;999.90;;;;;;;12.80;50.80;100529.31;15593365;28;20133;-62
2022/02/15 10:32:04;;;;;;;1999.90;999.90;;;;;;;12.93;51.04;100541.34;15605203;28;20044;-59
2022/02/15 10:39:39;;;;;;;1999.90;999.90;;;;;;;12.48;51.84;100545.09;15622090;28;20061;-60
2022/02/15 10:47:22;;;;;;;1999.90;999.90;;;;;;;12.10;52.53;100548.22;15621150;28;20048;-62
2022/02/15 10:54:54;;;;;;;1999.90;999.90;;;;;;;11.94;52.82;100561.22;15585901;28;20427;-61
2022/02/15 11:02:33;;;;;;;1999.90;999.90;;;;;;;11.92;53.38;100560.78;15609985;28;20118;-60
2022/02/15 11:10:15;;;;;;;1999.90;999.90;;;;;;;12.29;51.66;100572.81;15663398;28;20041;-61
2022/02/15 11:17:50;;;;;;;1999.90;999.90;;;;;;;12.01;52.30;100570.69;15640430;28;20084;-60
2022/02/15 11:25:33;;;;;;;1999.90;999.90;;;;;;;12.45;50.92;100570.97;15606664;28;20553;-61
2022/02/15 11:33:21;;;;;;;1999.90;999.90;;;;;;;11.96;51.83;100576.50;15600295;28;20515;-60
2022/02/15 11:40:59;;;;;;;1999.90;999.90;;;;;;;12.61;48.77;100582.28;15642262;28;20045;-61
2022/02/15 11:48:57;;;;;;;1999.90;999.90;;;;;;;12.80;47.66;100587.28;15654699;28;20041;-61
2022/02/15 11:56:59;;;;;;;1999.90;999.90;;;;;;;13.71;45.75;100594.09;15642772;28;20037;-62
2022/02/15 12:04:33;;;;;;;1999.90;999.90;;;;;;;13.68;46.36;100597.63;15631702;28;20116;-61
2022/02/15 12:12:11;;;;;;;1999.90;999.90;;;;;;;13.15;45.59;100590.41;15603723;28;20445;-60
2022/02/15 12:20:19;;;;;;;1999.90;999.90;;;;;;;12.57;46.30;100589.75;15611671;28;20050;-60
2022/02/15 12:27:53;;;;;;;1999.90;999.90;;;;;;;13.09;45.32;100581.44;15621248;28;20069;-64
2022/02/15 12:35:29;;;;;;;1999.90;999.90;;;;;;;13.00;45.94;100572.34;15597856;28;20136;-60
2022/02/15 12:43:04;;;;;;;;;;;;;;;14.64;43.45;100566.53;15598761;28;20077;-61
2022/02/15 12:50:36;;;;;;;1999.90;999.90;;;;;;;15.62;41.34;100565.50;15639793;28;19931;-62
2022/02/15 12:58:18;;;;;;;1999.90;999.90;;;;;;;14.23;44.72;100558.63;15663461;28;20490;-63
2022/02/15 13:05:51;;;;;;;1999.90;999.90;;;;;;;13.76;45.20;100563.03;15687496;28;20071;-60
2022/02/15 13:13:27;;;;;;;1999.90;999.90;;;;;;;13.22;46.90;100559.81;15666302;28;20438;-62
2022/02/15 13:21:23;;;;;;;1999.90;999.90;;;;;;;13.57;46.60;100569.28;15660430;28;20056;-61
2022/02/15 13:29:03;;;;;;;1999.90;999.90;;;;;;;13.22;47.92;100577.44;15684094;28;20041;-62
2022/02/15 13:36:41;;;;;;;1999.90;999.90;;;;;;;13.14;48.14;100564.38;15643753;28;20056;-62
2022/02/15 13:44:15;;;;;;;1999.90;999.90;;;;;;;13.09;48.31;100563.81;15668176;28;20045;-61
2022/02/15 13:51:47;;;;;;;1999.90;999.90;;;;;;;13.24;48.31;100566.72;15669343;28;20121;-61
2022/02/15 13:59:22;;;;;;;1999.90;999.90;;;;;;;12.78;49.01;100561.63;15657128;28;20049;-61
2022/02/15 14:07:05;;;;;;;1999.90;999.90;;;;;;;12.85;49.04;100564.66;15650485;28;20088;-60
2022/02/15 14:15:02;;;;;;;1999.90;999.90;;;;;;;12.74;49.57;100564.34;15612858;28;20041;-62
2022/02/15 14:22:59;;;;;;;1999.90;999.90;;;;;;;12.41;50.35;100561.66;15681971;28;20414;-60
2022/02/15 14:30:43;;;;;;;1999.90;999.90;;;;;;;12.59;50.82;100554.66;15629290;28;20422;-61
2022/02/15 14:38:17;;;;;;;1999.90;999.90;;;;;;;12.98;49.50;100557.88;15655881;28;20110;-60
2022/02/15 14:45:51;;;;;;;1999.90;999.90;;;;;;;12.99;49.83;100553.91;15636147;28;20080;-62
2022/02/15 14:53:23;;;;;;;1999.90;999.90;;;;;;;13.19;49.61;100555.75;15634604;28;20071;-63
2022/02/15 15:00:57;;;;;;;1999.90;999.90;;;;;;;13.39;49.83;100558.72;15625122;28;20576;-62
2022/02/15 15:08:30;;;;;;;1999.90;999.90;;;;;;;13.25;50.29;100559.94;15616285;28;20100;-61
2022/02/15 15:16:04;;;;;;;1999.90;999.90;;;;;;;13.29;49.82;100562.84;15652852;28;20061;-61
2022/02/15 15:23:36;;;;;;;1999.90;999.90;;;;;;;13.08;50.27;100559.38;15602727;28;20069;-61
2022/02/15 15:31:12;;;;;;;1999.90;999.90;;;;;;;12.73;49.79;100562.72;15639900;28;20057;-61
2022/02/15 15:38:45;;;;;;;1999.90;999.90;;;;;;;12.55;49.98;100556.53;15674878;28;20056;-59
2022/02/15 15:46:21;;;;;;;1999.90;999.90;;;;;;;12.40;48.99;100554.41;15640166;28;20459;-60
2022/02/15 15:53:54;;;;;;;1999.90;999.90;;;;;;;12.40;49.05;100537.63;15632348;28;20042;-62
2022/02/15 16:01:28;;;;;;;1999.90;999.90;;;;;;;11.91;50.21;100542.38;15629089;28;20397;-59
2022/02/15 16:09:04;;;;;;;1999.90;999.90;;;;;;;11.91;51.02;100511.59;15627023;28;20387;-56
2022/02/15 16:16:43;;;;;;;1999.90;999.90;;;;;;;11.60;51.92;100534.44;15670176;23;20067;-58
2022/02/15 16:24:16;;;;;;;1999.90;999.90;;;;;;;10.99;53.53;100541.38;15653596;28;20048;-60
2022/02/15 16:32:12;;;;;;;1999.90;999.90;;;;;;;10.91;54.15;100530.28;15672784;28;20049;-58
2022/02/15 16:39:45;;;;;;;1999.90;999.90;;;;;;;10.82;54.69;100537.88;15665688;28;20099;-58
2022/02/15 16:47:31;;;;;;;1999.90;999.90;;;;;;;10.66;55.19;100534.88;15684480;28;20425;-59
2022/02/15 16:55:29;;;;;;;1999.90;999.90;;;;;;;10.47;55.78;100531.72;15642216;28;20041;-59
2022/02/15 17:03:02;;;;;;;1999.90;999.90;;;;;;;10.26;56.61;100532.47;15656197;28;20516;-58
2022/02/15 17:10:37;;;;;;;1999.90;999.90;;;;;;;9.89;58.09;100525.69;15663029;28;20095;-59
2022/02/15 17:18:12;;;;;;;1999.90;999.90;;;;;;;9.69;58.75;100538.41;15681351;28;20068;-60
2022/02/15 17:25:47;;;;;;;1999.90;999.90;;;;;;;9.50;59.84;100543.50;15661768;28;20473;-59
2022/02/15 17:33:21;;;;;;;1999.90;999.90;;;;;;;9.35;60.79;100539.25;15679754;28;20149;-59
2022/02/15 17:40:53;;;;;;;1999.90;999.90;;;;;;;9.17;62.14;100549.59;15626771;28;20045;-59
2022/02/15 17:48:27;;;;;;;1999.90;999.90;;;;;;;9.30;62.92;100538.63;15677355;28;20091;-59
2022/02/15 17:56:00;;;;;;;1999.90;999.90;;;;;;;8.92;64.29;100545.63;15679520;28;20045;-59
2022/02/15 18:03:41;;;;;;;1999.90;999.90;;;;;;;9.05;64.22;100549.41;15669846;28;20048;-60
2022/02/15 18:11:15;;;;;;;1999.90;999.90;;;;;;;8.71;65.99;100549.38;15668330;28;20056;-59
2022/02/15 18:18:48;;;;;;;1999.90;999.90;;;;;;;8.80;66.13;100555.78;15638885;28;20045;-59
2022/02/15 18:26:20;;;;;;;1999.90;999.90;;;;;;;8.85;66.60;100550.03;15666572;28;20053;-59
2022/02/15 18:33:55;;;;;;;1999.90;999.90;;;;;;;8.93;67.41;100541.72;15665568;28;20037;-59
2022/02/15 18:49:25;;;;;;;1999.90;999.90;;;;;;;8.93;67.97;100530.56;15601198;28;20434;-59
2022/02/15 18:56:57;;;;;;;1999.90;999.90;;;;;;;9.17;67.46;100516.19;15648336;28;20037;-60
2022/02/15 19:04:39;;;;;;;1999.90;999.90;;;;;;;9.07;68.35;100510.13;15657067;28;20045;-60
2022/02/15 19:12:11;;;;;;;1999.90;999.90;;;;;;;8.94;68.15;100509.13;15626792;28;20057;-56
2022/02/15 19:19:45;;;;;;;1999.90;999.90;;;;;;;8.96;68.26;100496.56;15647609;28;20044;-60
2022/02/15 19:27:21;;;;;;;1999.90;999.90;;;;;;;8.75;69.14;100511.41;15643020;28;20091;-60
2022/02/15 19:35:10;;;;;;;1999.90;999.90;;;;;;;8.76;68.85;100502.75;15662624;28;20111;-60
2022/02/15 19:42:47;;;;;;;1999.90;999.90;;;;;;;8.51;69.67;100489.63;15655323;28;20502;-59
2022/02/15 19:50:23;;;;;;;1999.90;999.90;;;;;;;8.48;69.45;100499.44;15667349;28;20049;-59
2022/02/15 19:57:56;;;;;;;1999.90;999.90;;;;;;;8.26;69.83;100503.13;15634162;28;20041;-59
2022/02/15 20:05:30;;;;;;;1999.90;999.90;;;;;;;8.18;70.10;100503.09;15636996;28;20099;-59
2022/02/15 20:13:05;;;;;;;;;;;;;;;8.16;69.89;100485.91;15671589;28;20139;-59
2022/02/15 20:20:41;;;;;;;1999.90;999.90;;;;;;;7.91;70.08;100482.72;15660664;28;19924;-59
2022/02/15 20:28:13;;;;;;;;;;;;;;;7.90;69.25;100494.97;15649207;28;20497;-60
2022/02/15 20:35:49;;;;;;;1999.90;999.90;;;;;;;7.88;68.67;100472.25;15644550;28;20014;-61
2022/02/15 20:43:24;;;;;;;1999.90;999.90;;;;;;;7.70;68.57;100471.34;15667981;28;20128;-61
2022/02/15 20:50:58;;;;;;;1999.90;999.90;;;;;;;7.70;68.19;100465.78;15657139;28;20389;-59
2022/02/15 20:58:36;;;;;;;1999.90;999.90;;;;;;;7.70;68.18;100457.47;15649582;28;20041;-59
2022/02/15 21:06:16;;;;;;;1999.90;999.90;;;;;;;7.46;68.80;100454.25;15650282;28;20045;-58
2022/02/15 21:13:49;;;;;;;1999.90;999.90;;;;;;;7.38;68.28;100444.72;15668040;28;20401;-61
2022/02/15 21:21:22;;;;;;;1999.90;999.90;;;;;;;7.42;67.78;100454.06;15663514;28;20057;-61
2022/02/15 21:29:14;;;;;;;1999.90;999.90;;;;;;;7.25;67.90;100440.09;15660615;28;20044;-59
2022/02/15 21:36:47;;;;;;;1999.90;999.90;;;;;;;7.29;67.77;100429.16;15644088;28;20064;-59
2022/02/15 21:44:19;;;;;;;1999.90;999.90;;;;;;;7.37;67.15;100412.56;15676079;28;20099;-61
2022/02/15 21:52:08;;;;;;;1999.90;999.90;;;;;;;7.30;67.41;100422.50;15678329;28;20409;-59
2022/02/15 21:59:40;;;;;;;1999.90;999.90;;;;;;;7.22;67.05;100394.38;15672587;28;20048;-59
2022/02/15 22:07:24;;;;;;;1999.90;999.90;;;;;;;7.17;66.99;100385.34;15659522;28;20084;-58
2022/02/15 22:15:00;;;;;;;1999.90;999.90;;;;;;;7.20;66.71;100359.75;15660157;28;20048;-58
2022/02/15 22:23:02;;;;;;;;;;;;;;;;;;;;;
2022/02/15 22:30:44;;;;;;;1999.90;999.90;;;;;;;7.06;65.94;100329.31;15656517;28;20049;-61
2022/02/15 22:38:30;;;;;;;1999.90;999.90;;;;;;;7.06;65.75;100326.53;15659337;28;20474;-59
2022/02/15 22:46:08;;;;;;;1999.90;999.90;;;;;;;7.08;65.64;100315.13;15674415;28;20051;-61
2022/02/15 22:53:42;;;;;;;1999.90;999.90;;;;;;;7.02;65.66;100313.63;15674382;28;20056;-58
2022/02/15 23:01:19;;;;;;;1999.90;999.90;;;;;;;7.13;65.24;100290.03;15629445;28;20055;-59
2022/02/15 23:24:57;;;;;;;1999.90;999.90;;;;;;;7.21;64.33;100278.97;15638154;28;20277;-61
2022/02/15 23:32:31;;;;;;;1999.90;999.90;;;;;;;7.12;64.20;100267.00;15655306;28;20097;-61
2022/02/15 23:40:12;;;;;;;1999.90;999.90;;;;;;;7.26;64.18;100252.19;15653643;28;20049;-63
2022/02/15 23:47:44;;;;;;;1999.90;999.90;;;;;;;7.22;63.83;100235.38;15671297;28;20122;-59
2022/02/15 23:55:20;;;;;;;1999.90;999.90;;;;;;;7.36;63.32;100238.00;15663919;28;20115;-60
